createdAt,value
2022-12-29T00:02:12.540Z,1.60
2022-12-29T00:04:45.140Z,1.27
2022-12-29T00:07:17.227Z,1.07
2022-12-29T00:09:50.125Z,0.87
2022-12-29T00:12:22.269Z,0.97
2022-12-29T00:15:12.770Z,0.90
2022-12-29T00:17:44.796Z,0.80
2022-12-29T00:20:35.391Z,0.90
2022-12-29T00:23:28.029Z,0.90
2022-12-29T00:26:23.207Z,1.00
2022-12-29T00:29:13.511Z,0.90
2022-12-29T00:32:04.607Z,0.80
2022-12-29T00:35:02.753Z,0.87
2022-12-29T00:37:54.696Z,1.10
2022-12-29T00:40:45.527Z,1.10
2022-12-29T00:43:36.015Z,1.20
2022-12-29T00:46:08.015Z,1.73
2022-12-29T00:48:58.413Z,1.80
2022-12-29T00:51:30.529Z,2.03
2022-12-29T00:54:02.517Z,2.50
2022-12-29T00:56:34.540Z,2.50
2022-12-29T00:59:10.506Z,2.60
2022-12-29T01:01:43.549Z,2.40
2022-12-29T01:04:15.699Z,2.40
2022-12-29T01:06:48.165Z,2.10
2022-12-29T01:09:39.454Z,2.20
2022-12-29T01:12:11.876Z,2.10
2022-12-29T01:14:43.852Z,1.90
2022-12-29T01:17:15.824Z,1.70
2022-12-29T01:19:47.778Z,1.50
2022-12-29T01:22:19.755Z,1.70
2022-12-29T01:24:51.715Z,1.53
2022-12-29T01:27:23.714Z,1.40
2022-12-29T01:29:55.847Z,1.60
2022-12-29T01:32:27.793Z,1.40
2022-12-29T01:34:59.712Z,1.50
2022-12-29T01:37:31.650Z,1.17
2022-12-29T01:40:03.943Z,1.30
2022-12-29T01:42:35.916Z,1.13
2022-12-29T01:45:14.391Z,1.30
2022-12-29T01:47:55.702Z,1.17
2022-12-29T01:50:30.423Z,1.00
2022-12-29T01:53:36.132Z,1.17
2022-12-29T01:56:12.811Z,1.00
2022-12-29T01:58:49.778Z,1.20
2022-12-29T02:01:22.888Z,1.10
2022-12-29T02:03:55.212Z,1.03
2022-12-29T02:06:35.703Z,0.90
2022-12-29T02:09:07.716Z,1.20
2022-12-29T02:11:40.966Z,1.13
2022-12-29T02:14:15.241Z,1.17
2022-12-29T02:17:14.432Z,1.03
2022-12-29T02:20:05.199Z,1.10
2022-12-29T02:23:21.365Z,1.10
2022-12-29T02:26:35.511Z,1.00
2022-12-29T02:30:00.167Z,1.50
2022-12-29T02:32:40.666Z,1.10
2022-12-29T02:35:38.371Z,1.10
2022-12-29T02:38:28.505Z,1.07
2022-12-29T02:41:39.723Z,1.20
2022-12-29T02:44:56.925Z,1.00
2022-12-29T02:47:49.436Z,1.10
2022-12-29T02:50:44.536Z,1.10
2022-12-29T02:53:40.395Z,1.00
2022-12-29T02:56:12.347Z,1.13
2022-12-29T02:58:44.568Z,1.20
2022-12-29T03:02:05.202Z,1.10
2022-12-29T03:05:06.806Z,0.83
2022-12-29T03:08:03.516Z,1.23
2022-12-29T03:11:00.076Z,1.07
2022-12-29T03:14:11.032Z,1.10
2022-12-29T03:16:47.589Z,1.00
2022-12-29T03:19:38.796Z,1.00
2022-12-29T03:22:29.035Z,1.20
2022-12-29T03:25:13.117Z,0.80
2022-12-29T03:27:58.228Z,1.03
2022-12-29T03:30:33.668Z,1.10
2022-12-29T03:33:12.831Z,0.90
2022-12-29T03:35:50.100Z,0.90
2022-12-29T03:38:36.726Z,0.87
2022-12-29T03:41:17.531Z,1.20
2022-12-29T03:43:50.447Z,0.87
2022-12-29T03:46:22.411Z,1.00
2022-12-29T03:48:54.361Z,1.10
2022-12-29T03:51:26.415Z,1.20
2022-12-29T03:53:58.396Z,1.20
2022-12-29T03:56:30.458Z,1.20
2022-12-29T03:59:02.304Z,1.13
2022-12-29T04:01:34.438Z,1.17
2022-12-29T04:04:06.506Z,1.10
2022-12-29T04:06:38.451Z,1.10
2022-12-29T04:09:11.971Z,1.20
2022-12-29T04:11:44.005Z,1.40
2022-12-29T04:14:16.110Z,1.20
2022-12-29T04:16:50.296Z,1.00
2022-12-29T04:19:22.270Z,1.07
2022-12-29T04:21:54.272Z,1.23
2022-12-29T04:24:26.214Z,1.20
2022-12-29T04:26:58.174Z,1.03
2022-12-29T04:29:30.152Z,0.93
2022-12-29T04:32:02.064Z,1.03
2022-12-29T04:34:34.077Z,1.07
2022-12-29T04:37:06.003Z,1.20
2022-12-29T04:39:38.019Z,1.10
2022-12-29T04:42:10.013Z,1.07
2022-12-29T04:44:45.235Z,0.90
2022-12-29T04:47:17.347Z,1.50
2022-12-29T04:49:50.819Z,1.50
2022-12-29T04:52:22.772Z,1.50
2022-12-29T04:54:54.749Z,1.37
2022-12-29T04:57:27.232Z,1.40
2022-12-29T04:59:59.221Z,1.50
2022-12-29T05:02:31.365Z,1.63
2022-12-29T05:05:03.742Z,1.90
2022-12-29T05:07:35.915Z,1.40
2022-12-29T05:10:09.288Z,1.57
2022-12-29T05:12:41.452Z,1.60
2022-12-29T05:15:14.240Z,1.30
2022-12-29T05:17:46.560Z,1.50
2022-12-29T05:20:18.632Z,1.60
2022-12-29T05:22:50.632Z,1.57
2022-12-29T05:25:22.600Z,1.60
2022-12-29T05:27:54.542Z,1.50
2022-12-29T05:30:26.494Z,1.40
2022-12-29T05:32:58.462Z,1.30
2022-12-29T05:35:30.483Z,1.33
2022-12-29T05:38:02.467Z,1.33
2022-12-29T05:40:34.423Z,1.30
2022-12-29T05:43:06.394Z,1.50
2022-12-29T05:45:38.489Z,1.67
2022-12-29T05:48:10.483Z,1.30
2022-12-29T05:50:42.703Z,1.77
2022-12-29T05:53:14.805Z,1.30
2022-12-29T05:55:49.230Z,1.33
2022-12-29T05:58:21.772Z,1.23
2022-12-29T06:00:53.744Z,1.37
2022-12-29T06:03:25.947Z,1.20
2022-12-29T06:05:58.225Z,1.27
2022-12-29T06:08:30.167Z,1.30
2022-12-29T06:11:02.218Z,1.10
2022-12-29T06:13:34.191Z,1.40
2022-12-29T06:16:06.937Z,1.30
2022-12-29T06:18:39.065Z,1.70
2022-12-29T06:21:11.030Z,1.30
2022-12-29T06:23:43.014Z,1.60
2022-12-29T06:26:14.935Z,1.40
2022-12-29T06:28:46.883Z,1.30
2022-12-29T06:31:18.843Z,1.37
2022-12-29T06:33:50.899Z,1.40
2022-12-29T06:36:22.895Z,1.40
2022-12-29T06:38:55.461Z,1.60
2022-12-29T06:41:32.245Z,1.60
2022-12-29T06:44:04.524Z,1.70
2022-12-29T06:46:36.445Z,1.50
2022-12-29T06:49:08.370Z,1.67
2022-12-29T06:51:40.365Z,1.60
2022-12-29T06:54:13.201Z,1.63
2022-12-29T06:56:45.393Z,2.03
2022-12-29T06:59:17.388Z,1.70
2022-12-29T07:01:49.526Z,1.87
2022-12-29T07:04:21.558Z,1.90
2022-12-29T07:06:53.485Z,1.80
2022-12-29T07:09:25.447Z,1.80
2022-12-29T07:11:57.424Z,2.10
2022-12-29T07:14:29.408Z,1.90
2022-12-29T07:17:01.420Z,1.90
2022-12-29T07:19:34.489Z,2.10
2022-12-29T07:22:06.828Z,1.80
2022-12-29T07:24:38.898Z,1.80
2022-12-29T07:27:10.923Z,1.83
2022-12-29T07:29:42.874Z,2.20
2022-12-29T07:32:14.927Z,1.93
2022-12-29T07:34:48.472Z,2.00
2022-12-29T07:37:20.969Z,2.40
2022-12-29T07:39:52.933Z,1.90
2022-12-29T07:42:24.858Z,2.00
2022-12-29T07:44:56.743Z,2.40
2022-12-29T07:47:28.860Z,2.47
2022-12-29T07:50:00.818Z,2.10
2022-12-29T07:52:32.771Z,2.23
2022-12-29T07:55:05.928Z,1.90
2022-12-29T07:57:37.961Z,1.90
2022-12-29T08:00:11.509Z,1.93
2022-12-29T08:02:43.665Z,2.07
2022-12-29T08:05:16.499Z,2.30
2022-12-29T08:07:48.815Z,2.30
2022-12-29T08:10:20.840Z,2.40
2022-12-29T08:12:52.859Z,2.27
2022-12-29T08:15:30.562Z,2.03
2022-12-29T08:18:04.673Z,2.40
2022-12-29T08:20:36.920Z,2.00
2022-12-29T08:23:08.919Z,1.93
2022-12-29T08:25:40.931Z,2.57
2022-12-29T08:28:12.857Z,2.13
2022-12-29T08:30:44.941Z,2.17
2022-12-29T08:33:16.934Z,2.10
2022-12-29T08:35:49.102Z,2.07
2022-12-29T08:38:21.076Z,2.20
2022-12-29T08:40:53.109Z,2.40
2022-12-29T08:43:26.055Z,1.70
2022-12-29T08:46:00.215Z,2.20
2022-12-29T08:48:32.246Z,2.07
2022-12-29T08:51:04.314Z,1.83
2022-12-29T08:53:36.370Z,1.77
2022-12-29T08:56:12.305Z,2.07
2022-12-29T08:58:44.767Z,2.03
2022-12-29T09:01:16.934Z,2.27
2022-12-29T09:04:18.676Z,2.03
2022-12-29T09:06:41.429Z,2.07
2022-12-29T09:09:14.231Z,2.20
2022-12-29T09:11:46.684Z,2.33
2022-12-29T09:14:18.647Z,2.00
2022-12-29T09:17:11.749Z,1.97
2022-12-29T09:19:43.827Z,2.20
2022-12-29T09:22:15.733Z,2.10
2022-12-29T09:24:47.709Z,1.97
2022-12-29T09:27:19.592Z,2.03
2022-12-29T09:29:51.595Z,1.90
2022-12-29T09:32:24.445Z,2.13
2022-12-29T09:34:57.672Z,2.20
2022-12-29T09:37:29.739Z,2.13
2022-12-29T09:40:01.789Z,2.30
2022-12-29T09:42:53.229Z,2.30
2022-12-29T09:45:51.151Z,2.07
2022-12-29T09:48:30.637Z,2.10
2022-12-29T09:51:11.631Z,2.40
2022-12-29T09:54:13.635Z,2.20
2022-12-29T09:56:47.915Z,2.10
2022-12-29T09:59:32.039Z,2.00
2022-12-29T10:02:54.449Z,2.10
2022-12-29T10:05:55.356Z,1.80
2022-12-29T10:09:01.579Z,2.03
2022-12-29T10:11:55.030Z,1.80
2022-12-29T10:15:13.369Z,2.20
2022-12-29T10:18:33.249Z,2.17
2022-12-29T10:21:55.112Z,2.00
2022-12-29T10:24:30.401Z,2.17
2022-12-29T10:27:03.190Z,2.10
2022-12-29T10:29:44.024Z,2.47
2022-12-29T10:32:41.563Z,2.47
2022-12-29T10:35:21.763Z,2.13
2022-12-29T10:38:16.955Z,2.07
2022-12-29T10:41:12.037Z,2.10
2022-12-29T10:43:52.587Z,1.77
2022-12-29T10:46:35.634Z,2.43
2022-12-29T10:49:21.275Z,2.40
2022-12-29T10:51:59.340Z,2.17
2022-12-29T10:54:43.547Z,2.10
2022-12-29T10:57:32.215Z,2.00
2022-12-29T11:00:22.483Z,2.07
2022-12-29T11:03:47.255Z,2.30
2022-12-29T11:06:28.624Z,2.47
2022-12-29T11:09:17.730Z,2.47
2022-12-29T11:11:49.709Z,2.23
2022-12-29T11:14:32.464Z,2.90
2022-12-29T11:17:05.900Z,2.43
2022-12-29T11:19:41.165Z,2.97
2022-12-29T11:22:20.929Z,2.97
2022-12-29T11:24:55.949Z,2.37
2022-12-29T11:27:28.041Z,2.10
2022-12-29T11:30:00.117Z,2.60
2022-12-29T11:32:32.110Z,2.70
2022-12-29T11:35:05.695Z,2.10
2022-12-29T11:37:41.144Z,2.50
2022-12-29T11:40:21.407Z,2.50
2022-12-29T11:42:59.697Z,2.87
2022-12-29T11:45:36.210Z,2.90
2022-12-29T11:48:20.798Z,2.30
2022-12-29T11:51:02.878Z,2.50
2022-12-29T11:53:48.651Z,2.60
2022-12-29T11:56:40.896Z,2.47
2022-12-29T11:59:28.525Z,3.03
2022-12-29T12:02:12.415Z,2.87
2022-12-29T12:04:44.562Z,2.50
2022-12-29T12:07:29.986Z,2.60
2022-12-29T12:10:08.637Z,3.00
2022-12-29T12:13:19.119Z,2.93
2022-12-29T12:16:16.342Z,2.93
2022-12-29T12:18:54.716Z,2.30
2022-12-29T12:21:45.104Z,2.70
2022-12-29T12:24:35.385Z,2.70
2022-12-29T12:27:25.419Z,2.63
2022-12-29T12:30:25.985Z,2.53
2022-12-29T12:33:23.337Z,2.50
2022-12-29T12:36:36.775Z,2.40
2022-12-29T12:39:28.270Z,2.37
2022-12-29T12:42:50.144Z,2.20
2022-12-29T12:45:46.387Z,2.30
2022-12-29T12:48:51.229Z,1.90
2022-12-29T12:51:38.533Z,2.33
2022-12-29T12:54:34.446Z,2.57
2022-12-29T12:57:39.674Z,2.27
2022-12-29T13:00:19.758Z,2.30
2022-12-29T13:03:39.625Z,2.20
2022-12-29T13:07:11.796Z,2.40
2022-12-29T13:10:27.315Z,2.47
2022-12-29T13:13:48.574Z,2.40
2022-12-29T13:16:47.706Z,2.53
2022-12-29T13:19:35.492Z,2.70
2022-12-29T13:22:47.219Z,2.80
2022-12-29T13:25:30.484Z,2.20
2022-12-29T13:28:29.492Z,2.60
2022-12-29T13:31:34.062Z,2.80
2022-12-29T13:34:36.201Z,2.20
2022-12-29T13:37:17.257Z,2.47
2022-12-29T13:40:15.617Z,2.23
2022-12-29T13:42:48.301Z,2.20
2022-12-29T13:45:25.864Z,2.00
2022-12-29T13:48:18.435Z,2.40
2022-12-29T13:50:58.168Z,2.33
2022-12-29T13:53:50.798Z,2.50
2022-12-29T13:56:48.753Z,2.30
2022-12-29T13:59:55.127Z,2.40
2022-12-29T14:02:48.246Z,2.83
2022-12-29T14:05:23.341Z,2.73
2022-12-29T14:08:03.092Z,2.67
2022-12-29T14:10:49.007Z,3.50
2022-12-29T14:13:26.832Z,3.40
2022-12-29T14:16:00.176Z,2.50
2022-12-29T14:18:44.539Z,2.93
2022-12-29T14:21:29.576Z,2.47
2022-12-29T14:24:39.975Z,3.10
2022-12-29T14:27:11.954Z,2.90
2022-12-29T14:29:47.204Z,2.90
2022-12-29T14:32:22.436Z,2.77
2022-12-29T14:35:19.158Z,2.70
2022-12-29T14:38:19.108Z,2.53
2022-12-29T14:40:52.887Z,2.60
2022-12-29T14:43:28.169Z,2.80
2022-12-29T14:46:03.093Z,2.50
2022-12-29T14:48:43.231Z,2.73
2022-12-29T14:51:28.618Z,2.70
2022-12-29T14:54:00.706Z,2.70
2022-12-29T14:56:34.459Z,2.70
2022-12-29T14:59:11.958Z,2.37
2022-12-29T15:01:53.053Z,2.47
2022-12-29T15:04:33.351Z,2.83
2022-12-29T15:07:11.005Z,2.63
2022-12-29T15:09:59.323Z,2.77
2022-12-29T15:12:52.700Z,2.43
2022-12-29T15:15:27.736Z,2.20
2022-12-29T15:18:24.746Z,2.23
2022-12-29T15:21:05.623Z,1.70
2022-12-29T15:23:38.547Z,1.60
2022-12-29T15:26:12.721Z,1.70
2022-12-29T15:28:47.713Z,1.80
2022-12-29T15:31:30.114Z,1.70
2022-12-29T15:34:13.371Z,1.50
2022-12-29T15:36:45.493Z,1.57
2022-12-29T15:39:31.670Z,1.77
2022-12-29T15:42:30.903Z,1.63
2022-12-29T15:45:11.317Z,1.53
2022-12-29T15:47:49.819Z,1.80
2022-12-29T15:50:30.734Z,2.00
2022-12-29T15:53:10.795Z,1.60
2022-12-29T15:55:45.226Z,1.87
2022-12-29T15:58:27.439Z,1.60
2022-12-29T16:01:02.810Z,1.70
2022-12-29T16:03:38.560Z,1.30
2022-12-29T16:06:36.089Z,1.60
2022-12-29T16:09:19.596Z,1.50
2022-12-29T16:11:57.595Z,1.43
2022-12-29T16:14:51.688Z,1.50
2022-12-29T16:17:29.397Z,1.90
2022-12-29T16:20:15.177Z,1.57
2022-12-29T16:22:58.530Z,1.50
2022-12-29T16:25:38.314Z,3.50
2022-12-29T16:28:45.081Z,1.90
2022-12-29T16:31:25.744Z,1.63
2022-12-29T16:33:58.186Z,1.83
2022-12-29T16:36:35.201Z,1.40
2022-12-29T16:39:28.062Z,1.80
2022-12-29T16:42:00.482Z,1.80
2022-12-29T16:44:32.520Z,2.07
2022-12-29T16:47:20.553Z,2.17
2022-12-29T16:49:55.020Z,2.03
2022-12-29T16:52:35.241Z,1.77
2022-12-29T16:55:17.446Z,2.00
2022-12-29T16:57:57.255Z,2.00
2022-12-29T17:00:36.672Z,1.90
2022-12-29T17:03:12.440Z,2.10
2022-12-29T17:05:44.764Z,2.30
2022-12-29T17:08:24.022Z,2.37
2022-12-29T17:11:16.188Z,2.07
2022-12-29T17:13:48.119Z,2.03
2022-12-29T17:16:20.555Z,2.03
2022-12-29T17:18:52.604Z,2.20
2022-12-29T17:21:24.576Z,2.43
2022-12-29T17:23:56.721Z,2.53
2022-12-29T17:26:28.798Z,2.40
2022-12-29T17:29:00.910Z,2.47
2022-12-29T17:31:32.934Z,2.50
2022-12-29T17:34:04.903Z,2.00
2022-12-29T17:36:36.806Z,2.60
2022-12-29T17:39:09.757Z,2.47
2022-12-29T17:41:41.760Z,2.33
2022-12-29T17:44:20.258Z,2.47
2022-12-29T17:46:52.316Z,2.57
2022-12-29T17:49:24.397Z,2.50
2022-12-29T17:51:57.793Z,2.63
2022-12-29T17:54:29.995Z,2.20
2022-12-29T17:57:01.912Z,2.47
2022-12-29T17:59:33.957Z,2.80
2022-12-29T18:02:30.596Z,2.60
2022-12-29T18:05:03.005Z,2.60
2022-12-29T18:07:36.185Z,2.50
2022-12-29T18:10:09.468Z,2.40
2022-12-29T18:12:45.715Z,2.67
2022-12-29T18:15:34.879Z,2.40
2022-12-29T18:18:23.236Z,2.60
2022-12-29T18:21:00.543Z,2.70
2022-12-29T18:23:37.024Z,2.93
2022-12-29T18:26:28.636Z,2.90
2022-12-29T18:29:01.061Z,2.33
2022-12-29T18:31:36.727Z,2.83
2022-12-29T18:34:15.620Z,3.50
2022-12-29T18:36:47.641Z,3.20
2022-12-29T18:39:20.000Z,3.83
2022-12-29T18:41:51.999Z,3.50
2022-12-29T18:44:24.675Z,4.23
2022-12-29T18:46:56.765Z,3.77
2022-12-29T18:49:28.788Z,3.60
2022-12-29T18:52:00.815Z,3.20
2022-12-29T18:54:33.845Z,3.40
2022-12-29T18:57:05.820Z,3.40
2022-12-29T18:59:37.940Z,3.83
2022-12-29T19:02:17.807Z,3.57
2022-12-29T19:04:53.035Z,3.90
2022-12-29T19:07:26.241Z,3.43
2022-12-29T19:09:59.911Z,3.07
2022-12-29T19:12:31.839Z,3.77
2022-12-29T19:15:07.143Z,3.60
2022-12-29T19:17:39.119Z,3.20
2022-12-29T19:20:36.467Z,3.63
2022-12-29T19:23:16.287Z,3.60
2022-12-29T19:25:49.638Z,4.40
2022-12-29T19:28:28.079Z,3.60
2022-12-29T19:31:02.843Z,3.60
2022-12-29T19:33:34.920Z,3.33
2022-12-29T19:36:07.083Z,4.20
2022-12-29T19:38:39.051Z,3.70
2022-12-29T19:41:11.054Z,4.10
2022-12-29T19:43:44.059Z,4.63
2022-12-29T19:46:18.854Z,4.20
2022-12-29T19:48:51.720Z,3.90
2022-12-29T19:51:23.748Z,4.00
2022-12-29T19:53:56.387Z,4.00
2022-12-29T19:56:28.392Z,3.83
2022-12-29T19:59:00.311Z,3.37
2022-12-29T20:01:32.633Z,3.50
2022-12-29T20:04:04.862Z,3.50
2022-12-29T20:06:38.118Z,3.37
2022-12-29T20:09:10.065Z,3.57
2022-12-29T20:11:42.112Z,3.10
2022-12-29T20:14:15.615Z,3.53
2022-12-29T20:17:09.438Z,3.53
2022-12-29T20:19:42.310Z,3.20
2022-12-29T20:22:14.596Z,3.87
2022-12-29T20:24:50.285Z,4.10
2022-12-29T20:27:24.020Z,4.10
2022-12-29T20:29:56.066Z,3.40
2022-12-29T20:32:28.023Z,3.17
2022-12-29T20:35:00.066Z,2.80
2022-12-29T20:37:31.980Z,3.00
2022-12-29T20:40:04.460Z,3.10
2022-12-29T20:42:36.526Z,3.10
2022-12-29T20:45:09.678Z,3.17
2022-12-29T20:47:41.644Z,3.00
2022-12-29T20:50:13.684Z,2.67
2022-12-29T20:52:46.921Z,3.13
2022-12-29T20:55:19.167Z,3.50
2022-12-29T20:58:22.765Z,2.70
2022-12-29T21:00:43.098Z,2.70
2022-12-29T21:03:15.333Z,2.97
2022-12-29T21:05:47.903Z,3.00
2022-12-29T21:08:21.301Z,3.00
2022-12-29T21:10:54.058Z,3.10
2022-12-29T21:13:27.135Z,2.73
2022-12-29T21:16:06.706Z,3.00
2022-12-29T21:18:39.311Z,2.87
2022-12-29T21:21:24.565Z,2.73
2022-12-29T21:24:05.196Z,2.77
2022-12-29T21:26:37.395Z,3.13
2022-12-29T21:29:09.311Z,2.73
2022-12-29T21:31:41.291Z,3.40
2022-12-29T21:34:13.239Z,2.90
2022-12-29T21:36:45.199Z,3.07
2022-12-29T21:39:18.179Z,2.63
2022-12-29T21:41:50.174Z,2.77
2022-12-29T21:44:40.947Z,2.67
2022-12-29T21:47:13.162Z,2.77
2022-12-29T21:49:45.106Z,2.80
2022-12-29T21:52:17.040Z,2.90
2022-12-29T21:55:09.245Z,2.60
2022-12-29T21:57:59.863Z,2.93
2022-12-29T22:00:50.278Z,3.20
2022-12-29T22:03:40.506Z,2.23
2022-12-29T22:06:31.095Z,2.73
2022-12-29T22:09:21.627Z,2.90
2022-12-29T22:12:12.056Z,2.47
2022-12-29T22:14:43.991Z,2.97
2022-12-29T22:17:19.308Z,3.03
2022-12-29T22:19:51.508Z,2.90
2022-12-29T22:22:23.556Z,2.83
2022-12-29T22:24:55.466Z,2.73
2022-12-29T22:27:27.614Z,2.63
2022-12-29T22:29:59.606Z,3.00
2022-12-29T22:32:32.915Z,3.03
2022-12-29T22:35:08.269Z,3.47
2022-12-29T22:37:43.606Z,3.77
2022-12-29T22:40:16.157Z,2.93
2022-12-29T22:42:48.300Z,2.50
2022-12-29T22:45:20.170Z,2.60
2022-12-29T22:47:52.098Z,2.33
2022-12-29T22:50:24.100Z,3.07
2022-12-29T22:52:56.061Z,3.00
2022-12-29T22:55:28.038Z,2.60
2022-12-29T22:58:02.995Z,2.80
2022-12-29T23:00:34.883Z,3.13
2022-12-29T23:03:07.216Z,2.83
2022-12-29T23:05:39.339Z,2.40
2022-12-29T23:08:11.293Z,2.73
2022-12-29T23:10:43.335Z,2.93
2022-12-29T23:13:15.282Z,2.83
2022-12-29T23:15:48.452Z,3.00
2022-12-29T23:18:20.798Z,2.70
2022-12-29T23:20:53.307Z,3.00
2022-12-29T23:23:48.884Z,2.47
2022-12-29T23:26:32.410Z,3.10
2022-12-29T23:29:09.178Z,2.90
2022-12-29T23:31:41.681Z,2.80
2022-12-29T23:34:16.238Z,2.87
2022-12-29T23:36:48.617Z,2.47
2022-12-29T23:39:25.984Z,2.50
2022-12-29T23:41:58.255Z,2.60
2022-12-29T23:44:30.215Z,2.63
2022-12-29T23:47:02.167Z,3.07
2022-12-29T23:49:34.180Z,2.37
2022-12-29T23:52:06.218Z,2.80
2022-12-29T23:54:38.229Z,2.90
2022-12-29T23:57:10.168Z,2.80
2022-12-29T23:59:42.400Z,2.60
